sensor_id;sensor_type;location;lat;lon;timestamp;P1;durP1;ratioP1;P2;durP2;ratioP2
18592;SDS011;9426;54.118;17.948;2023-01-16T00:03:41;5.27;;;1.70;;
18592;SDS011;9426;54.118;17.948;2023-01-16T00:09:23;5.77;;;1.73;;
18592;SDS011;9426;54.118;17.948;2023-01-16T00:14:48;2.80;;;1.30;;
18592;SDS011;9426;54.118;17.948;2023-01-16T00:20:12;3.77;;;1.50;;
18592;SDS011;9426;54.118;17.948;2023-01-16T00:25:38;4.83;;;1.57;;
18592;SDS011;9426;54.118;17.948;2023-01-16T00:31:04;5.53;;;1.60;;
18592;SDS011;9426;54.118;17.948;2023-01-16T00:36:28;5.97;;;1.90;;
18592;SDS011;9426;54.118;17.948;2023-01-16T00:41:52;4.83;;;1.50;;
18592;SDS011;9426;54.118;17.948;2023-01-16T00:47:17;2.87;;;1.43;;
18592;SDS011;9426;54.118;17.948;2023-01-16T00:52:41;4.93;;;1.60;;
18592;SDS011;9426;54.118;17.948;2023-01-16T00:58:05;3.53;;;1.20;;
18592;SDS011;9426;54.118;17.948;2023-01-16T01:03:48;4.03;;;1.53;;
18592;SDS011;9426;54.118;17.948;2023-01-16T01:09:31;4.30;;;1.50;;
18592;SDS011;9426;54.118;17.948;2023-01-16T01:14:55;5.57;;;1.70;;
18592;SDS011;9426;54.118;17.948;2023-01-16T01:20:20;4.03;;;1.33;;
18592;SDS011;9426;54.118;17.948;2023-01-16T01:25:43;8.37;;;1.63;;
18592;SDS011;9426;54.118;17.948;2023-01-16T01:31:08;5.73;;;1.80;;
18592;SDS011;9426;54.118;17.948;2023-01-16T01:36:34;3.80;;;1.60;;
18592;SDS011;9426;54.118;17.948;2023-01-16T01:42:16;4.13;;;1.60;;
18592;SDS011;9426;54.118;17.948;2023-01-16T01:48:02;5.57;;;1.80;;
18592;SDS011;9426;54.118;17.948;2023-01-16T01:53:41;4.83;;;1.60;;
18592;SDS011;9426;54.118;17.948;2023-01-16T01:59:07;4.53;;;1.50;;
18592;SDS011;9426;54.118;17.948;2023-01-16T02:04:36;7.67;;;2.03;;
18592;SDS011;9426;54.118;17.948;2023-01-16T02:10:10;8.40;;;2.13;;
18592;SDS011;9426;54.118;17.948;2023-01-16T02:15:55;3.83;;;1.57;;
18592;SDS011;9426;54.118;17.948;2023-01-16T02:21:47;2.33;;;1.10;;
18592;SDS011;9426;54.118;17.948;2023-01-16T02:33:26;3.90;;;1.57;;
18592;SDS011;9426;54.118;17.948;2023-01-16T02:39:02;3.03;;;1.30;;
18592;SDS011;9426;54.118;17.948;2023-01-16T02:44:33;2.30;;;1.50;;
18592;SDS011;9426;54.118;17.948;2023-01-16T02:50:06;6.50;;;1.47;;
18592;SDS011;9426;54.118;17.948;2023-01-16T02:55:37;3.67;;;1.37;;
18592;SDS011;9426;54.118;17.948;2023-01-16T03:01:05;5.47;;;1.40;;
18592;SDS011;9426;54.118;17.948;2023-01-16T03:06:36;6.17;;;1.40;;
18592;SDS011;9426;54.118;17.948;2023-01-16T03:17:53;5.13;;;1.37;;
18592;SDS011;9426;54.118;17.948;2023-01-16T03:23:31;7.10;;;2.07;;
18592;SDS011;9426;54.118;17.948;2023-01-16T03:29:05;7.73;;;1.70;;
18592;SDS011;9426;54.118;17.948;2023-01-16T03:34:34;3.03;;;1.27;;
18592;SDS011;9426;54.118;17.948;2023-01-16T03:40:05;3.63;;;1.63;;
18592;SDS011;9426;54.118;17.948;2023-01-16T03:45:31;3.10;;;1.47;;
18592;SDS011;9426;54.118;17.948;2023-01-16T03:50:59;3.07;;;1.47;;
18592;SDS011;9426;54.118;17.948;2023-01-16T03:56:29;5.07;;;2.13;;
18592;SDS011;9426;54.118;17.948;2023-01-16T04:01:57;4.90;;;1.83;;
18592;SDS011;9426;54.118;17.948;2023-01-16T04:07:26;6.17;;;1.50;;
18592;SDS011;9426;54.118;17.948;2023-01-16T04:12:58;10.20;;;2.33;;
18592;SDS011;9426;54.118;17.948;2023-01-16T04:18:28;7.23;;;1.40;;
18592;SDS011;9426;54.118;17.948;2023-01-16T04:23:54;3.97;;;1.53;;
18592;SDS011;9426;54.118;17.948;2023-01-16T04:29:20;3.10;;;1.50;;
18592;SDS011;9426;54.118;17.948;2023-01-16T04:34:43;8.73;;;1.90;;
18592;SDS011;9426;54.118;17.948;2023-01-16T04:40:08;5.27;;;1.87;;
18592;SDS011;9426;54.118;17.948;2023-01-16T04:45:33;4.70;;;1.53;;
18592;SDS011;9426;54.118;17.948;2023-01-16T04:50:57;4.33;;;2.37;;
18592;SDS011;9426;54.118;17.948;2023-01-16T04:56:21;5.70;;;1.40;;
18592;SDS011;9426;54.118;17.948;2023-01-16T05:01:46;6.57;;;1.43;;
18592;SDS011;9426;54.118;17.948;2023-01-16T05:07:10;4.70;;;1.60;;
18592;SDS011;9426;54.118;17.948;2023-01-16T05:12:33;4.87;;;1.80;;
18592;SDS011;9426;54.118;17.948;2023-01-16T05:17:58;5.87;;;2.30;;
18592;SDS011;9426;54.118;17.948;2023-01-16T05:23:23;4.50;;;1.27;;
18592;SDS011;9426;54.118;17.948;2023-01-16T05:28:47;6.47;;;1.63;;
18592;SDS011;9426;54.118;17.948;2023-01-16T05:34:12;6.10;;;1.40;;
18592;SDS011;9426;54.118;17.948;2023-01-16T05:39:36;3.13;;;1.77;;
18592;SDS011;9426;54.118;17.948;2023-01-16T05:44:59;3.53;;;1.43;;
18592;SDS011;9426;54.118;17.948;2023-01-16T05:50:24;3.77;;;1.70;;
18592;SDS011;9426;54.118;17.948;2023-01-16T05:55:48;5.33;;;1.50;;
18592;SDS011;9426;54.118;17.948;2023-01-16T06:01:12;6.90;;;1.80;;
18592;SDS011;9426;54.118;17.948;2023-01-16T06:06:38;3.63;;;1.50;;
18592;SDS011;9426;54.118;17.948;2023-01-16T06:12:01;5.90;;;1.50;;
18592;SDS011;9426;54.118;17.948;2023-01-16T06:17:25;4.20;;;1.70;;
18592;SDS011;9426;54.118;17.948;2023-01-16T06:22:50;3.37;;;1.60;;
18592;SDS011;9426;54.118;17.948;2023-01-16T06:28:14;6.33;;;1.80;;
18592;SDS011;9426;54.118;17.948;2023-01-16T06:33:38;4.53;;;1.90;;
18592;SDS011;9426;54.118;17.948;2023-01-16T06:39:03;5.77;;;2.30;;
18592;SDS011;9426;54.118;17.948;2023-01-16T06:44:27;7.33;;;1.90;;
18592;SDS011;9426;54.118;17.948;2023-01-16T06:49:50;3.70;;;1.80;;
18592;SDS011;9426;54.118;17.948;2023-01-16T06:55:16;7.63;;;2.40;;
18592;SDS011;9426;54.118;17.948;2023-01-16T07:00:39;10.13;;;3.57;;
18592;SDS011;9426;54.118;17.948;2023-01-16T07:06:03;10.30;;;2.90;;
18592;SDS011;9426;54.118;17.948;2023-01-16T07:11:29;6.17;;;2.90;;
18592;SDS011;9426;54.118;17.948;2023-01-16T07:16:52;6.37;;;3.00;;
18592;SDS011;9426;54.118;17.948;2023-01-16T07:22:33;8.60;;;3.30;;
18592;SDS011;9426;54.118;17.948;2023-01-16T07:28:01;9.57;;;3.53;;
18592;SDS011;9426;54.118;17.948;2023-01-16T07:33:26;5.00;;;2.80;;
18592;SDS011;9426;54.118;17.948;2023-01-16T07:38:50;7.50;;;3.93;;
18592;SDS011;9426;54.118;17.948;2023-01-16T07:44:15;7.47;;;2.50;;
18592;SDS011;9426;54.118;17.948;2023-01-16T07:49:39;5.77;;;2.70;;
18592;SDS011;9426;54.118;17.948;2023-01-16T07:55:04;7.70;;;2.93;;
18592;SDS011;9426;54.118;17.948;2023-01-16T08:00:29;6.60;;;2.77;;
18592;SDS011;9426;54.118;17.948;2023-01-16T08:05:55;6.90;;;2.63;;
18592;SDS011;9426;54.118;17.948;2023-01-16T08:11:19;10.83;;;3.00;;
18592;SDS011;9426;54.118;17.948;2023-01-16T08:17:01;5.93;;;2.73;;
18592;SDS011;9426;54.118;17.948;2023-01-16T08:22:24;12.07;;;5.33;;
18592;SDS011;9426;54.118;17.948;2023-01-16T08:27:49;12.00;;;6.20;;
18592;SDS011;9426;54.118;17.948;2023-01-16T08:33:14;8.00;;;3.37;;
18592;SDS011;9426;54.118;17.948;2023-01-16T08:38:38;9.90;;;3.70;;
18592;SDS011;9426;54.118;17.948;2023-01-16T08:44:02;6.47;;;3.40;;
18592;SDS011;9426;54.118;17.948;2023-01-16T08:49:44;9.07;;;3.63;;
18592;SDS011;9426;54.118;17.948;2023-01-16T08:55:27;9.03;;;4.00;;
18592;SDS011;9426;54.118;17.948;2023-01-16T09:00:51;16.63;;;4.57;;
18592;SDS011;9426;54.118;17.948;2023-01-16T09:06:17;9.00;;;3.97;;
18592;SDS011;9426;54.118;17.948;2023-01-16T09:11:40;7.87;;;3.63;;
18592;SDS011;9426;54.118;17.948;2023-01-16T09:17:22;11.73;;;4.63;;
18592;SDS011;9426;54.118;17.948;2023-01-16T09:22:48;8.47;;;4.33;;
18592;SDS011;9426;54.118;17.948;2023-01-16T09:28:18;9.33;;;3.70;;
18592;SDS011;9426;54.118;17.948;2023-01-16T09:33:42;8.33;;;3.43;;
18592;SDS011;9426;54.118;17.948;2023-01-16T09:39:08;10.83;;;3.60;;
18592;SDS011;9426;54.118;17.948;2023-01-16T09:44:31;7.93;;;3.47;;
18592;SDS011;9426;54.118;17.948;2023-01-16T09:49:57;9.37;;;3.20;;
18592;SDS011;9426;54.118;17.948;2023-01-16T09:55:27;11.57;;;3.47;;
18592;SDS011;9426;54.118;17.948;2023-01-16T10:01:14;12.13;;;2.70;;
18592;SDS011;9426;54.118;17.948;2023-01-16T10:06:43;7.73;;;3.20;;
18592;SDS011;9426;54.118;17.948;2023-01-16T10:12:15;8.47;;;3.37;;
18592;SDS011;9426;54.118;17.948;2023-01-16T10:17:40;8.20;;;3.10;;
18592;SDS011;9426;54.118;17.948;2023-01-16T10:23:20;9.33;;;3.43;;
18592;SDS011;9426;54.118;17.948;2023-01-16T10:29:03;7.77;;;3.53;;
18592;SDS011;9426;54.118;17.948;2023-01-16T10:34:43;11.13;;;3.90;;
18592;SDS011;9426;54.118;17.948;2023-01-16T10:40:15;10.13;;;3.70;;
18592;SDS011;9426;54.118;17.948;2023-01-16T10:45:42;8.73;;;3.53;;
18592;SDS011;9426;54.118;17.948;2023-01-16T10:51:23;7.77;;;3.97;;
18592;SDS011;9426;54.118;17.948;2023-01-16T10:56:47;8.37;;;3.50;;
18592;SDS011;9426;54.118;17.948;2023-01-16T11:02:15;8.13;;;3.70;;
18592;SDS011;9426;54.118;17.948;2023-01-16T11:07:42;7.80;;;3.60;;
18592;SDS011;9426;54.118;17.948;2023-01-16T11:13:07;9.40;;;3.73;;
18592;SDS011;9426;54.118;17.948;2023-01-16T11:19:19;6.47;;;3.53;;
18592;SDS011;9426;54.118;17.948;2023-01-16T11:24:44;7.43;;;3.80;;
18592;SDS011;9426;54.118;17.948;2023-01-16T11:30:14;11.00;;;4.33;;
18592;SDS011;9426;54.118;17.948;2023-01-16T11:35:43;7.60;;;3.40;;
18592;SDS011;9426;54.118;17.948;2023-01-16T11:41:13;14.00;;;3.90;;
18592;SDS011;9426;54.118;17.948;2023-01-16T11:46:41;9.83;;;4.07;;
18592;SDS011;9426;54.118;17.948;2023-01-16T11:52:09;7.43;;;3.60;;
18592;SDS011;9426;54.118;17.948;2023-01-16T11:57:39;15.73;;;6.73;;
18592;SDS011;9426;54.118;17.948;2023-01-16T12:09:12;11.23;;;4.53;;
18592;SDS011;9426;54.118;17.948;2023-01-16T12:14:48;41.03;;;18.00;;
18592;SDS011;9426;54.118;17.948;2023-01-16T12:20:18;9.83;;;4.63;;
18592;SDS011;9426;54.118;17.948;2023-01-16T12:25:52;9.63;;;4.80;;
18592;SDS011;9426;54.118;17.948;2023-01-16T12:31:27;8.60;;;3.77;;
18592;SDS011;9426;54.118;17.948;2023-01-16T12:37:10;25.13;;;11.80;;
18592;SDS011;9426;54.118;17.948;2023-01-16T12:42:48;14.67;;;5.87;;
18592;SDS011;9426;54.118;17.948;2023-01-16T12:48:44;17.10;;;6.97;;
18592;SDS011;9426;54.118;17.948;2023-01-16T13:00:14;11.77;;;5.37;;
18592;SDS011;9426;54.118;17.948;2023-01-16T13:05:40;9.47;;;4.17;;
18592;SDS011;9426;54.118;17.948;2023-01-16T13:11:09;13.73;;;5.20;;
18592;SDS011;9426;54.118;17.948;2023-01-16T13:16:59;12.57;;;5.30;;
18592;SDS011;9426;54.118;17.948;2023-01-16T13:22:28;11.17;;;4.17;;
18592;SDS011;9426;54.118;17.948;2023-01-16T13:27:57;10.13;;;4.70;;
18592;SDS011;9426;54.118;17.948;2023-01-16T13:33:27;7.20;;;3.70;;
18592;SDS011;9426;54.118;17.948;2023-01-16T13:38:56;12.50;;;4.30;;
18592;SDS011;9426;54.118;17.948;2023-01-16T13:44:33;15.70;;;5.20;;
18592;SDS011;9426;54.118;17.948;2023-01-16T13:50:20;15.33;;;6.00;;
18592;SDS011;9426;54.118;17.948;2023-01-16T13:55:47;44.07;;;18.20;;
18592;SDS011;9426;54.118;17.948;2023-01-16T14:01:34;85.60;;;33.30;;
18592;SDS011;9426;54.118;17.948;2023-01-16T14:13:31;287.63;;;94.00;;
18592;SDS011;9426;54.118;17.948;2023-01-16T14:18:59;159.20;;;49.07;;
18592;SDS011;9426;54.118;17.948;2023-01-16T14:24:38;51.27;;;18.07;;
18592;SDS011;9426;54.118;17.948;2023-01-16T14:30:05;28.63;;;10.47;;
18592;SDS011;9426;54.118;17.948;2023-01-16T14:35:42;40.57;;;15.73;;
18592;SDS011;9426;54.118;17.948;2023-01-16T14:41:13;107.20;;;36.73;;
18592;SDS011;9426;54.118;17.948;2023-01-16T14:46:58;44.27;;;15.63;;
18592;SDS011;9426;54.118;17.948;2023-01-16T14:52:49;172.50;;;49.67;;
18592;SDS011;9426;54.118;17.948;2023-01-16T14:58:47;229.43;;;75.47;;
18592;SDS011;9426;54.118;17.948;2023-01-16T15:04:15;25.07;;;11.10;;
18592;SDS011;9426;54.118;17.948;2023-01-16T15:09:43;46.03;;;16.73;;
18592;SDS011;9426;54.118;17.948;2023-01-16T15:15:21;30.60;;;14.37;;
18592;SDS011;9426;54.118;17.948;2023-01-16T15:20:47;24.17;;;11.40;;
18592;SDS011;9426;54.118;17.948;2023-01-16T15:26:38;23.87;;;10.60;;
18592;SDS011;9426;54.118;17.948;2023-01-16T15:32:14;23.37;;;9.37;;
18592;SDS011;9426;54.118;17.948;2023-01-16T15:37:47;22.90;;;9.00;;
18592;SDS011;9426;54.118;17.948;2023-01-16T15:43:13;24.50;;;12.73;;
18592;SDS011;9426;54.118;17.948;2023-01-16T15:48:57;59.57;;;25.60;;
18592;SDS011;9426;54.118;17.948;2023-01-16T15:54:37;66.20;;;27.07;;
18592;SDS011;9426;54.118;17.948;2023-01-16T16:00:02;68.67;;;31.43;;
18592;SDS011;9426;54.118;17.948;2023-01-16T16:05:46;81.40;;;32.70;;
18592;SDS011;9426;54.118;17.948;2023-01-16T16:11:14;70.57;;;28.13;;
18592;SDS011;9426;54.118;17.948;2023-01-16T16:17:01;393.17;;;106.73;;
18592;SDS011;9426;54.118;17.948;2023-01-16T16:22:45;525.77;;;140.10;;
18592;SDS011;9426;54.118;17.948;2023-01-16T16:28:21;382.87;;;103.67;;
18592;SDS011;9426;54.118;17.948;2023-01-16T16:33:52;302.77;;;83.67;;
18592;SDS011;9426;54.118;17.948;2023-01-16T16:39:27;197.20;;;65.43;;
18592;SDS011;9426;54.118;17.948;2023-01-16T16:45:03;145.77;;;49.43;;
18592;SDS011;9426;54.118;17.948;2023-01-16T16:50:35;120.53;;;45.20;;
18592;SDS011;9426;54.118;17.948;2023-01-16T16:56:07;110.73;;;45.70;;
18592;SDS011;9426;54.118;17.948;2023-01-16T17:01:33;91.33;;;37.10;;
18592;SDS011;9426;54.118;17.948;2023-01-16T17:06:58;107.70;;;45.07;;
18592;SDS011;9426;54.118;17.948;2023-01-16T17:12:23;92.93;;;37.53;;
18592;SDS011;9426;54.118;17.948;2023-01-16T17:17:48;85.43;;;35.33;;
18592;SDS011;9426;54.118;17.948;2023-01-16T17:23:18;133.67;;;51.03;;
18592;SDS011;9426;54.118;17.948;2023-01-16T17:28:44;131.80;;;50.97;;
18592;SDS011;9426;54.118;17.948;2023-01-16T17:34:09;97.80;;;39.03;;
18592;SDS011;9426;54.118;17.948;2023-01-16T17:39:35;135.23;;;48.73;;
18592;SDS011;9426;54.118;17.948;2023-01-16T17:45:00;114.67;;;42.57;;
18592;SDS011;9426;54.118;17.948;2023-01-16T17:50:45;61.60;;;26.53;;
18592;SDS011;9426;54.118;17.948;2023-01-16T17:56:09;79.30;;;32.20;;
18592;SDS011;9426;54.118;17.948;2023-01-16T18:01:34;74.77;;;28.30;;
18592;SDS011;9426;54.118;17.948;2023-01-16T18:06:58;72.47;;;31.73;;
18592;SDS011;9426;54.118;17.948;2023-01-16T18:12:25;46.47;;;20.67;;
18592;SDS011;9426;54.118;17.948;2023-01-16T18:18:08;57.80;;;25.43;;
18592;SDS011;9426;54.118;17.948;2023-01-16T18:23:31;57.33;;;26.23;;
18592;SDS011;9426;54.118;17.948;2023-01-16T18:28:55;49.00;;;21.30;;
18592;SDS011;9426;54.118;17.948;2023-01-16T18:34:20;37.13;;;18.23;;
18592;SDS011;9426;54.118;17.948;2023-01-16T18:39:44;37.07;;;18.73;;
18592;SDS011;9426;54.118;17.948;2023-01-16T18:45:25;42.03;;;19.97;;
18592;SDS011;9426;54.118;17.948;2023-01-16T18:51:10;69.37;;;31.87;;
18592;SDS011;9426;54.118;17.948;2023-01-16T18:56:53;57.83;;;27.33;;
18592;SDS011;9426;54.118;17.948;2023-01-16T19:02:45;52.80;;;26.03;;
18592;SDS011;9426;54.118;17.948;2023-01-16T19:08:12;62.00;;;29.40;;
18592;SDS011;9426;54.118;17.948;2023-01-16T19:13:44;74.40;;;35.23;;
18592;SDS011;9426;54.118;17.948;2023-01-16T19:19:09;73.43;;;36.00;;
18592;SDS011;9426;54.118;17.948;2023-01-16T19:24:34;55.70;;;27.53;;
18592;SDS011;9426;54.118;17.948;2023-01-16T19:29:58;56.10;;;27.77;;
18592;SDS011;9426;54.118;17.948;2023-01-16T19:35:21;53.50;;;26.07;;
18592;SDS011;9426;54.118;17.948;2023-01-16T19:40:47;49.03;;;25.47;;
18592;SDS011;9426;54.118;17.948;2023-01-16T19:46:14;59.63;;;28.63;;
18592;SDS011;9426;54.118;17.948;2023-01-16T19:51:55;106.80;;;46.20;;
18592;SDS011;9426;54.118;17.948;2023-01-16T19:57:20;92.73;;;42.23;;
18592;SDS011;9426;54.118;17.948;2023-01-16T20:02:44;122.30;;;52.53;;
18592;SDS011;9426;54.118;17.948;2023-01-16T20:08:08;108.20;;;46.47;;
18592;SDS011;9426;54.118;17.948;2023-01-16T20:13:34;73.53;;;34.63;;
18592;SDS011;9426;54.118;17.948;2023-01-16T20:18:58;67.90;;;32.73;;
18592;SDS011;9426;54.118;17.948;2023-01-16T20:24:22;62.80;;;29.67;;
18592;SDS011;9426;54.118;17.948;2023-01-16T20:29:47;89.40;;;40.57;;
18592;SDS011;9426;54.118;17.948;2023-01-16T20:35:11;73.40;;;34.87;;
18592;SDS011;9426;54.118;17.948;2023-01-16T20:40:35;63.07;;;30.53;;
18592;SDS011;9426;54.118;17.948;2023-01-16T20:46:02;68.37;;;30.90;;
18592;SDS011;9426;54.118;17.948;2023-01-16T20:51:26;60.40;;;29.13;;
18592;SDS011;9426;54.118;17.948;2023-01-16T20:56:50;65.10;;;31.07;;
18592;SDS011;9426;54.118;17.948;2023-01-16T21:02:15;110.87;;;47.27;;
18592;SDS011;9426;54.118;17.948;2023-01-16T21:07:43;63.27;;;30.43;;
18592;SDS011;9426;54.118;17.948;2023-01-16T21:13:08;57.97;;;29.73;;
18592;SDS011;9426;54.118;17.948;2023-01-16T21:18:52;57.60;;;29.17;;
18592;SDS011;9426;54.118;17.948;2023-01-16T21:24:48;77.93;;;37.23;;
18592;SDS011;9426;54.118;17.948;2023-01-16T21:30:13;112.83;;;49.70;;
18592;SDS011;9426;54.118;17.948;2023-01-16T21:35:39;151.57;;;66.73;;
18592;SDS011;9426;54.118;17.948;2023-01-16T21:41:09;98.60;;;40.73;;
18592;SDS011;9426;54.118;17.948;2023-01-16T21:46:34;72.73;;;35.77;;
18592;SDS011;9426;54.118;17.948;2023-01-16T21:52:00;60.47;;;30.70;;
18592;SDS011;9426;54.118;17.948;2023-01-16T21:57:23;72.03;;;36.07;;
18592;SDS011;9426;54.118;17.948;2023-01-16T22:02:47;72.27;;;34.53;;
18592;SDS011;9426;54.118;17.948;2023-01-16T22:08:12;60.93;;;30.73;;
18592;SDS011;9426;54.118;17.948;2023-01-16T22:13:36;61.33;;;31.47;;
18592;SDS011;9426;54.118;17.948;2023-01-16T22:19:16;61.30;;;30.10;;
18592;SDS011;9426;54.118;17.948;2023-01-16T22:24:51;68.27;;;32.43;;
18592;SDS011;9426;54.118;17.948;2023-01-16T22:30:15;70.43;;;34.73;;
18592;SDS011;9426;54.118;17.948;2023-01-16T22:35:39;59.93;;;30.20;;
18592;SDS011;9426;54.118;17.948;2023-01-16T22:41:05;85.73;;;35.77;;
18592;SDS011;9426;54.118;17.948;2023-01-16T22:46:30;69.60;;;34.33;;
18592;SDS011;9426;54.118;17.948;2023-01-16T22:51:54;86.90;;;38.77;;
18592;SDS011;9426;54.118;17.948;2023-01-16T22:57:19;53.27;;;27.07;;
18592;SDS011;9426;54.118;17.948;2023-01-16T23:02:43;45.53;;;25.50;;
18592;SDS011;9426;54.118;17.948;2023-01-16T23:08:07;39.00;;;22.30;;
18592;SDS011;9426;54.118;17.948;2023-01-16T23:13:32;51.73;;;26.73;;
18592;SDS011;9426;54.118;17.948;2023-01-16T23:18:56;36.87;;;20.63;;
18592;SDS011;9426;54.118;17.948;2023-01-16T23:24:21;33.97;;;19.67;;
18592;SDS011;9426;54.118;17.948;2023-01-16T23:29:47;35.83;;;20.27;;
18592;SDS011;9426;54.118;17.948;2023-01-16T23:35:11;39.43;;;20.27;;
18592;SDS011;9426;54.118;17.948;2023-01-16T23:40:35;42.43;;;22.07;;
18592;SDS011;9426;54.118;17.948;2023-01-16T23:45:59;39.43;;;21.00;;
18592;SDS011;9426;54.118;17.948;2023-01-16T23:51:23;40.47;;;22.13;;
18592;SDS011;9426;54.118;17.948;2023-01-16T23:56:47;39.53;;;20.63;;
